Time;durP1;ratioP1;P1;durP2;ratioP2;P2;SDS_P1;SDS_P2;PMS_P1;PMS_P2;Temp;Humidity;BMP_temperature;BMP_pressure;BME280_temperature;BME280_humidity;BME280_pressure;Samples;Min_cycle;Max_cycle;Signal;HPM_P1;HPM_P2
2021/03/05 00:00:33;;;;;;;12.88;9.00;;;24.00;99.90;;;;;;5074058;28;20078;-62
2021/03/05 00:03:01;;;;;;;13.38;9.02;;;23.70;99.90;;;;;;5073890;28;20444;-62
2021/03/05 00:05:28;;;;;;;12.63;8.95;;;23.70;99.90;;;;;;5073959;28;20016;-63
2021/03/05 00:07:56;;;;;;;15.73;9.07;;;23.50;99.90;;;;;;5073870;28;20021;-61
2021/03/05 00:10:30;;;;;;;13.70;8.90;;;23.30;99.90;;;;;;5072531;28;20025;-62
2021/03/05 00:12:57;;;;;;;17.40;10.15;;;23.10;99.90;;;;;;5074133;28;20052;-62
2021/03/05 00:15:29;;;;;;;15.05;10.07;;;23.30;99.90;;;;;;5073783;28;20027;-62
2021/03/05 00:17:56;;;;;;;15.63;9.13;;;23.90;99.90;;;;;;5073979;28;20377;-62
2021/03/05 00:20:26;;;;;;;11.02;9.07;;;23.70;99.90;;;;;;5073671;28;20067;-61
2021/03/05 00:22:54;;;;;;;13.20;9.85;;;23.40;99.90;;;;;;5073755;28;20016;-62
2021/03/05 00:25:21;;;;;;;12.20;9.48;;;23.10;99.90;;;;;;5073618;28;20025;-62
2021/03/05 00:27:49;;;;;;;16.48;10.25;;;23.20;99.90;;;;;;5073499;28;20398;-62
2021/03/05 00:30:18;;;;;;;12.95;9.13;;;23.60;99.90;;;;;;5073386;28;20099;-62
2021/03/05 00:32:45;;;;;;;14.63;10.15;;;23.80;99.90;;;;;;5072185;28;20017;-62
2021/03/05 00:35:16;;;;;;;13.75;9.00;;;24.40;99.90;;;;;;5073453;28;20028;-62
2021/03/05 00:37:43;;;;;;;15.90;9.60;;;24.20;99.90;;;;;;5072056;28;20020;-62
2021/03/05 00:40:14;;;;;;;12.13;9.05;;;24.20;99.90;;;;;;5073232;28;20067;-62
2021/03/05 00:42:43;;;;;;;12.50;8.13;;;24.20;99.90;;;;;;5073879;28;20127;-63
2021/03/05 00:45:12;;;;;;;13.05;8.73;;;24.10;99.90;;;;;;5073643;28;20054;-62
2021/03/05 00:47:39;;;;;;;15.68;9.57;;;24.20;99.90;;;;;;5073304;28;20030;-62
2021/03/05 00:50:08;;;;;;;18.27;8.88;;;24.00;99.90;;;;;;5073273;28;20488;-62
2021/03/05 00:52:36;;;;;;;13.45;9.07;;;23.70;99.90;;;;;;5072810;28;20050;-59
2021/03/05 00:55:08;;;;;;;15.77;8.25;;;23.60;99.90;;;;;;5072809;28;20096;-59
2021/03/05 00:57:36;;;;;;;13.70;8.18;;;23.90;99.90;;;;;;5073315;28;20112;-59
2021/03/05 01:00:09;;;;;;;13.90;8.18;;;24.10;99.90;;;;;;5073131;28;20024;-60
2021/03/05 01:02:37;;;;;;;16.42;8.70;;;24.10;99.90;;;;;;5073078;28;20028;-60
2021/03/05 01:05:06;;;;;;;17.15;8.55;;;24.60;99.90;;;;;;5073115;28;20060;-59
2021/03/05 01:07:33;;;;;;;16.65;8.07;;;24.80;99.90;;;;;;5073188;28;20027;-59
2021/03/05 01:10:01;;;;;;;15.13;8.80;;;;;;;;;;5072950;28;20397;-59
2021/03/05 01:12:28;;;;;;;13.82;8.45;;;;;;;;;;5073381;28;20020;-59
2021/03/05 01:14:56;;;;;;;15.93;8.60;;;;;;;;;;5073465;28;20104;-59
2021/03/05 01:17:23;;;;;;;13.48;8.68;;;;;;;;;;5072914;28;20040;-59
2021/03/05 01:19:50;;;;;;;16.83;9.00;;;;;;;;;;5072974;28;20100;-59
2021/03/05 01:22:17;;;;;;;16.92;9.55;;;;;;;;;;5073040;28;20033;-61
2021/03/05 01:24:48;;;;;;;15.43;9.32;;;;;;;;;;5071916;28;20029;-62
2021/03/05 01:27:30;;;;;;;;;;;;;;;;;;5072526;28;20081;-62
2021/03/05 01:29:57;;;;;;;13.20;9.15;;;;;;;;;;5071640;28;19909;-61
2021/03/05 01:32:24;;;;;;;12.65;9.63;;;;;;;;;;5072898;28;20412;-59
2021/03/05 01:34:52;;;;;;;21.27;10.85;;;23.70;99.90;;;;;;5072955;28;20013;-59
2021/03/05 01:37:19;;;;;;;15.38;9.23;;;23.40;99.90;;;;;;5072891;28;20109;-60
2021/03/05 01:39:46;;;;;;;16.83;9.45;;;23.30;99.90;;;;;;5072818;28;20372;-60
2021/03/05 01:42:14;;;;;;;14.02;8.80;;;23.90;99.90;;;;;;5072585;28;20056;-61
2021/03/05 01:44:42;;;;;;;16.10;10.07;;;24.00;99.90;;;;;;5073031;28;20433;-60
2021/03/05 01:47:09;;;;;;;13.77;9.50;;;23.70;99.90;;;;;;5072779;28;20024;-60
2021/03/05 01:49:36;;;;;;;16.55;8.80;;;24.00;99.90;;;;;;5073244;28;20035;-60
2021/03/05 01:52:04;;;;;;;13.05;9.30;;;24.50;99.90;;;;;;5072738;28;20021;-61
2021/03/05 01:54:31;;;;;;;18.23;8.43;;;24.50;99.90;;;;;;5072600;28;20488;-61
2021/03/05 01:56:58;;;;;;;15.35;8.15;;;24.00;99.90;;;;;;5071367;28;20017;-60
2021/03/05 01:59:30;;;;;;;12.63;7.72;;;24.10;99.90;;;;;;5072653;28;20082;-60
2021/03/05 02:02:09;;;;;;;12.43;8.20;;;23.80;99.90;;;;;;5071298;28;20388;-60
2021/03/05 02:04:37;;;;;;;16.55;8.48;;;24.50;99.90;;;;;;5072160;28;20449;-60
2021/03/05 02:07:06;;;;;;;11.93;9.15;;;24.20;99.90;;;;;;5076303;28;20017;-60
2021/03/05 02:09:34;;;;;;;14.45;8.77;;;23.80;99.90;;;;;;5076797;28;20024;-60
2021/03/05 02:12:02;;;;;;;13.32;9.02;;;24.40;99.90;;;;;;5076212;28;20380;-60
2021/03/05 02:14:30;;;;;;;13.32;8.07;;;25.00;99.90;;;;;;5076185;28;20095;-60
2021/03/05 02:17:27;;;;;;;14.20;7.53;;;25.20;99.90;;;;;;5075126;28;20051;-62
2021/03/05 02:20:27;;;;;;;14.52;7.70;;;24.70;99.90;;;;;;5076126;28;20029;-60
2021/03/05 02:23:22;;;;;;;11.75;8.30;;;25.30;99.90;;;;;;5076203;28;20056;-60
2021/03/05 02:26:25;;;;;;;12.50;8.30;;;25.20;99.90;;;;;;5075960;28;20024;-60
2021/03/05 02:29:18;;;;;;;17.60;9.23;;;25.00;99.90;;;;;;5076007;28;20492;-61
2021/03/05 02:31:56;;;;;;;17.63;8.73;;;;;;;;;;5075742;28;20025;-60
2021/03/05 02:34:29;;;;;;;14.60;8.32;;;;;;;;;;5075755;28;20017;-60
2021/03/05 02:37:05;;;;;;;13.73;8.15;;;;;;;;;;5074722;28;20028;-60
2021/03/05 02:39:35;;;;;;;12.15;6.97;;;;;;;;;;5074192;28;20024;-59
2021/03/05 02:42:06;;;;;;;10.77;7.30;;;;;;;;;;5075571;28;20170;-60
2021/03/05 02:44:34;;;;;;;14.60;8.25;;;;;;;;;;5075836;28;20074;-60
2021/03/05 02:47:05;;;;;;;11.73;8.00;;;;;;;;;;5075759;28;20375;-60
2021/03/05 02:49:34;;;;;;;15.45;8.60;;;;;;;;;;5075523;28;20101;-59
2021/03/05 02:52:06;;;;;;;16.45;8.70;;;;;;;;;;5075523;28;20017;-60
2021/03/05 02:54:39;;;;;;;12.18;7.68;;;;;;;;;;5075367;28;20028;-59
2021/03/05 02:57:08;;;;;;;12.70;7.65;;;;;;;;;;5075592;28;20465;-60
2021/03/05 02:59:38;;;;;;;11.07;7.10;;;;;;;;;;5075226;28;20476;-60
2021/03/05 03:02:06;;;;;;;14.20;8.00;;;;;;;;;;5075546;28;20029;-60
2021/03/05 03:04:34;;;;;;;14.60;8.15;;;;;;;;;;5075174;28;20362;-60
2021/03/05 03:07:02;;;;;;;11.23;7.22;;;;;;;;;;5075148;28;20055;-60
2021/03/05 03:09:29;;;;;;;15.65;7.72;;;;;;;;;;5075058;28;20027;-60
2021/03/05 03:11:56;;;;;;;11.95;7.57;;;;;;;;;;5075007;28;20047;-60
2021/03/05 03:14:24;;;;;;;13.57;7.97;;;;;;;;;;5074963;28;20036;-60
2021/03/05 03:16:51;;;;;;;12.93;7.15;;;;;;;;;;5074213;28;20093;-60
2021/03/05 03:19:22;;;;;;;13.45;7.40;;;23.90;99.90;;;;;;5074955;28;20024;-59
2021/03/05 03:21:49;;;;;;;13.68;7.13;;;24.00;99.90;;;;;;5074841;28;20532;-59
2021/03/05 03:24:17;;;;;;;14.73;7.15;;;23.80;99.90;;;;;;5074701;28;20389;-59
2021/03/05 03:26:44;;;;;;;11.05;6.97;;;24.10;99.90;;;;;;5074740;28;20024;-61
2021/03/05 03:29:13;;;;;;;10.85;6.63;;;24.60;99.90;;;;;;5074702;28;20031;-60
2021/03/05 03:31:41;;;;;;;18.30;8.02;;;25.30;99.90;;;;;;5074680;28;20096;-58
2021/03/05 03:34:08;;;;;;;13.45;7.72;;;24.60;99.90;;;;;;5074591;28;20098;-60
2021/03/05 03:36:37;;;;;;;13.20;7.32;;;24.30;99.90;;;;;;5074544;28;20026;-59
2021/03/05 03:39:07;;;;;;;12.93;7.47;;;24.50;99.90;;;;;;5074812;28;20404;-59
2021/03/05 03:41:37;;;;;;;11.93;7.68;;;24.50;99.90;;;;;;5074361;28;20098;-59
2021/03/05 03:44:13;;;;;;;14.25;8.05;;;24.50;99.90;;;;;;5074402;28;20103;-59
2021/03/05 03:46:47;;;;;;;11.32;7.32;;;24.60;99.90;;;;;;5073105;28;20111;-60
2021/03/05 03:49:34;;;;;;;13.70;8.02;;;24.40;99.90;;;;;;5074114;28;20028;-60
2021/03/05 03:52:13;;;;;;;12.18;7.70;;;25.00;99.90;;;;;;5074673;28;20020;-60
2021/03/05 03:54:42;;;;;;;15.25;7.55;;;25.60;99.90;;;;;;5074247;28;20021;-61
2021/03/05 03:57:12;;;;;;;11.35;7.80;;;25.20;99.90;;;;;;5074381;28;20048;-57
2021/03/05 03:59:39;;;;;;;;;;;25.30;99.90;;;;;;5075131;28;20036;-57
2021/03/05 04:02:08;;;;;;;10.73;7.38;;;25.20;99.90;;;;;;5074259;28;19908;-57
2021/03/05 04:04:38;;;;;;;11.52;8.18;;;25.10;99.90;;;;;;5074034;28;20036;-57
2021/03/05 04:07:08;;;;;;;9.18;7.55;;;24.70;99.90;;;;;;5074562;28;20028;-57
2021/03/05 04:09:37;;;;;;;12.85;8.00;;;25.10;99.90;;;;;;5073928;28;20035;-55
2021/03/05 04:12:05;;;;;;;12.38;7.85;;;24.20;99.90;;;;;;5073827;28;20099;-57
2021/03/05 04:14:33;;;;;;;12.43;7.32;;;24.50;99.90;;;;;;5074132;28;20020;-57
2021/03/05 04:17:00;;;;;;;13.82;8.07;;;25.00;99.90;;;;;;5073834;28;20108;-57
2021/03/05 04:19:29;;;;;;;17.42;8.43;;;25.00;99.90;;;;;;5073683;28;20035;-56
2021/03/05 04:21:57;;;;;;;15.25;8.23;;;25.50;99.90;;;;;;5074045;28;20025;-57
2021/03/05 04:24:24;;;;;;;15.02;7.60;;;25.70;99.90;;;;;;5073609;28;20020;-57
2021/03/05 04:26:52;;;;;;;11.32;7.80;;;25.30;99.90;;;;;;5073530;28;20021;-57
2021/03/05 04:29:19;;;;;;;9.38;7.07;;;25.80;99.90;;;;;;5073509;28;20420;-59
2021/03/05 04:31:46;;;;;;;11.15;6.88;;;25.80;99.90;;;;;;5073575;28;20048;-58
2021/03/05 04:34:14;;;;;;;11.88;7.00;;;26.00;99.90;;;;;;5073521;28;20525;-58
2021/03/05 04:36:41;;;;;;;12.93;7.30;;;26.00;99.90;;;;;;5073196;28;20024;-58
2021/03/05 04:39:11;;;;;;;12.45;7.40;;;26.30;99.90;;;;;;5073490;28;20051;-57
2021/03/05 04:41:38;;;;;;;12.20;7.20;;;26.30;99.90;;;;;;5073153;28;20137;-60
2021/03/05 04:44:06;;;;;;;11.45;6.70;;;26.00;99.70;;;;;;5073403;28;20033;-58
2021/03/05 04:46:33;;;;;;;10.43;6.30;;;26.40;99.50;;;;;;5073310;28;20119;-58
2021/03/05 04:49:01;;;;;;;11.65;7.00;;;25.90;99.90;;;;;;5073269;28;20469;-58
2021/03/05 04:51:28;;;;;;;12.50;6.45;;;25.90;99.90;;;;;;5073305;28;20012;-58
2021/03/05 04:53:55;;;;;;;8.95;6.25;;;26.30;99.70;;;;;;5073281;28;20496;-57
2021/03/05 04:56:23;;;;;;;10.07;6.32;;;26.20;99.70;;;;;;5073361;28;20096;-58
2021/03/05 04:58:50;;;;;;;13.50;6.80;;;26.30;98.90;;;;;;5071726;28;20445;-58
2021/03/05 05:01:18;;;;;;;8.20;6.35;;;26.70;98.90;;;;;;5073122;28;20037;-59
2021/03/05 05:03:45;;;;;;;8.35;6.63;;;26.60;98.90;;;;;;5072964;28;20017;-58
2021/03/05 05:06:14;;;;;;;12.15;6.93;;;26.30;98.30;;;;;;5073089;28;20027;-58
2021/03/05 05:08:41;;;;;;;10.25;6.97;;;26.10;99.20;;;;;;5073254;28;20028;-58
2021/03/05 05:11:08;;;;;;;13.25;7.22;;;26.30;99.30;;;;;;5072962;28;20095;-59
2021/03/05 05:13:35;;;;;;;11.73;8.30;;;26.50;98.10;;;;;;5073000;28;20388;-58
2021/03/05 05:16:03;;;;;;;11.98;7.88;;;25.90;99.60;;;;;;5073150;28;20104;-58
2021/03/05 05:18:31;;;;;;;10.25;7.75;;;25.60;99.90;;;;;;5072871;28;20480;-57
2021/03/05 05:20:59;;;;;;;10.48;6.75;;;25.30;99.60;;;;;;5072962;28;20032;-59
2021/03/05 05:23:26;;;;;;;10.73;6.82;;;25.50;99.80;;;;;;5073453;28;20025;-57
2021/03/05 05:25:54;;;;;;;13.00;7.22;;;25.60;99.90;;;;;;5072837;28;20028;-58
2021/03/05 05:28:21;;;;;;;9.07;6.22;;;25.30;99.60;;;;;;5072721;28;20385;-58
2021/03/05 05:30:48;;;;;;;9.35;6.82;;;25.20;99.90;;;;;;5072835;28;20013;-60
2021/03/05 05:33:17;;;;;;;11.65;6.38;;;24.60;99.90;;;;;;5072804;28;20108;-60
2021/03/05 05:35:44;;;;;;;11.32;6.70;;;24.60;99.90;;;;;;5073011;28;20017;-59
2021/03/05 05:38:11;;;;;;;11.55;7.32;;;24.30;99.90;;;;;;5072683;28;20101;-58
2021/03/05 05:40:39;;;;;;;16.15;7.20;;;24.30;99.90;;;;;;5075407;28;20048;-58
2021/03/05 05:43:07;;;;;;;10.98;6.55;;;24.60;99.90;;;;;;5077054;28;20021;-59
2021/03/05 05:45:34;;;;;;;12.18;6.97;;;24.30;99.90;;;;;;5076642;28;20056;-58
2021/03/05 05:48:02;;;;;;;11.70;7.35;;;24.40;99.90;;;;;;5076842;28;20017;-59
2021/03/05 05:50:30;;;;;;;12.48;7.40;;;24.60;99.90;;;;;;5076629;28;20055;-59
2021/03/05 05:53:00;;;;;;;11.52;7.28;;;24.30;99.90;;;;;;5076606;28;20397;-58
2021/03/05 05:55:28;;;;;;;12.68;6.95;;;24.40;99.90;;;;;;5076570;28;20031;-60
2021/03/05 05:57:57;;;;;;;14.00;7.28;;;24.10;99.90;;;;;;5076576;28;20033;-57
2021/03/05 06:00:26;;;;;;;12.70;6.90;;;23.80;99.90;;;;;;5076331;28;20437;-57
2021/03/05 06:02:54;;;;;;;11.73;7.13;;;23.80;99.90;;;;;;5076177;28;20134;-60
2021/03/05 06:05:22;;;;;;;10.60;6.85;;;23.40;99.90;;;;;;5076510;28;20021;-64
2021/03/05 06:07:50;;;;;;;13.02;7.13;;;23.40;99.90;;;;;;5074996;28;20128;-61
2021/03/05 06:10:17;;;;;;;12.02;6.75;;;23.40;99.90;;;;;;5076201;28;20100;-60
2021/03/05 06:12:48;;;;;;;16.23;7.00;;;23.30;99.90;;;;;;5076161;28;20510;-61
2021/03/05 06:15:21;;;;;;;11.55;6.65;;;23.10;99.90;;;;;;5076023;28;20025;-61
2021/03/05 06:17:49;;;;;;;7.28;6.07;;;23.30;99.90;;;;;;5076049;28;20077;-60
2021/03/05 06:20:18;;;;;;;11.50;6.72;;;23.40;99.90;;;;;;5076273;28;20095;-60
2021/03/05 06:22:48;;;;;;;13.60;6.60;;;23.60;99.90;;;;;;5075993;28;20384;-59
2021/03/05 06:25:37;;;;;;;12.95;7.43;;;23.50;99.90;;;;;;5075948;28;20025;-59
2021/03/05 06:28:15;;;;;;;10.93;7.10;;;23.40;99.90;;;;;;5075643;28;20029;-61
2021/03/05 06:30:43;;;;;;;13.88;7.50;;;23.00;99.90;;;;;;5076077;28;20017;-62
2021/03/05 06:33:31;;;;;;;16.63;7.88;;;22.80;99.90;;;;;;5075708;28;20046;-62
2021/03/05 06:36:22;;;;;;;14.77;7.63;;;23.00;99.90;;;;;;5076070;28;20020;-62
2021/03/05 06:38:49;;;;;;;13.27;6.90;;;22.70;99.90;;;;;;5076148;28;20050;-61
2021/03/05 06:41:29;;;;;;;11.10;6.97;;;22.80;99.90;;;;;;5075373;28;20052;-63
2021/03/05 06:43:59;;;;;;;13.80;7.57;;;22.70;99.90;;;;;;5075712;28;20526;-63
2021/03/05 06:46:28;;;;;;;13.98;7.40;;;22.60;99.90;;;;;;5075853;28;20031;-62
2021/03/05 06:48:57;;;;;;;10.98;6.88;;;22.50;99.90;;;;;;5075456;28;20025;-62
2021/03/05 06:51:25;;;;;;;15.23;6.97;;;22.40;99.90;;;;;;5074900;28;20024;-63
2021/03/05 06:54:13;;;;;;;11.73;7.00;;;22.50;99.90;;;;;;5075404;28;20020;-63
2021/03/05 06:56:42;;;;;;;9.90;6.47;;;22.60;99.90;;;;;;5074240;28;20082;-63
2021/03/05 06:59:12;;;;;;;11.93;7.03;;;22.70;99.90;;;;;;5075327;28;20044;-63
2021/03/05 07:01:56;;;;;;;12.00;7.53;;;22.40;99.90;;;;;;5075332;28;20534;-64
2021/03/05 07:04:29;;;;;;;143.35;44.50;;;22.40;99.90;;;;;;5075135;28;20107;-63
2021/03/05 07:07:01;;;;;;;40.65;16.13;;;22.60;99.90;;;;;;5075346;28;20473;-74
2021/03/05 07:09:50;;;;;;;14.77;7.65;;;22.70;99.90;;;;;;5074841;28;20025;-63
2021/03/05 07:12:24;;;;;;;13.30;7.25;;;22.70;99.90;;;;;;5075031;28;20029;-63
2021/03/05 07:15:03;;;;;;;12.70;7.97;;;22.60;99.90;;;;;;5075215;28;20028;-63
2021/03/05 07:17:30;;;;;;;13.73;8.23;;;22.50;99.90;;;;;;5074969;28;20489;-62
2021/03/05 07:19:58;;;;;;;12.38;7.72;;;22.50;99.90;;;;;;5073526;28;20033;-62
2021/03/05 07:22:27;;;;;;;9.73;7.00;;;22.50;99.90;;;;;;5074937;28;20036;-63
2021/03/05 07:24:56;;;;;;;15.77;7.82;;;22.50;99.90;;;;;;5074887;28;20043;-64
2021/03/05 07:27:37;;;;;;;12.18;7.05;;;22.50;99.90;;;;;;5074780;28;20036;-63
2021/03/05 07:30:10;;;;;;;12.07;7.78;;;22.40;99.90;;;;;;5074876;28;20063;-64
2021/03/05 07:32:39;;;;;;;11.13;7.15;;;22.30;99.90;;;;;;5074653;28;20021;-65
2021/03/05 07:35:13;;;;;;;14.55;7.97;;;22.20;99.90;;;;;;5073156;28;20411;-65
2021/03/05 07:37:48;;;;;;;15.40;7.57;;;22.20;99.90;;;;;;5075068;28;20032;-69
2021/03/05 07:40:18;;;;;;;11.95;6.90;;;22.30;99.90;;;;;;5072974;28;20364;-67
2021/03/05 07:42:46;;;;;;;15.40;7.40;;;22.40;99.90;;;;;;5074407;28;20028;-64
2021/03/05 07:45:15;;;;;;;13.90;7.30;;;22.10;99.90;;;;;;5073030;28;20265;-66
2021/03/05 07:47:48;;;;;;;10.10;6.68;;;21.90;99.90;;;;;;5074392;28;20024;-64
2021/03/05 07:50:20;;;;;;;15.00;7.30;;;21.80;99.90;;;;;;5074330;28;20025;-66
2021/03/05 07:52:48;;;;;;;13.93;7.05;;;21.70;99.90;;;;;;5074165;28;20017;-63
2021/03/05 07:55:23;;;;;;;13.88;6.78;;;21.70;99.90;;;;;;5074201;28;20016;-63
2021/03/05 07:57:50;;;;;;;13.65;7.97;;;21.60;99.90;;;;;;5074775;28;20373;-63
2021/03/05 08:00:38;;;;;;;15.32;7.55;;;21.50;99.90;;;;;;5072752;28;20036;-63
2021/03/05 08:03:06;;;;;;;13.50;7.88;;;21.60;99.90;;;;;;5073793;28;20031;-67
2021/03/05 08:05:39;;;;;;;15.85;8.45;;;21.60;99.90;;;;;;5074623;28;20025;-62
2021/03/05 08:08:19;;;;;;;13.30;8.10;;;21.30;99.90;;;;;;5074189;28;20016;-63
2021/03/05 08:10:54;;;;;;;11.73;7.40;;;21.30;99.90;;;;;;5072550;28;20024;-63
2021/03/05 08:16:30;;;;;;;13.88;7.22;;;21.30;99.90;;;;;;5073909;28;20468;-62
2021/03/05 08:19:20;;;;;;;15.98;7.30;;;21.20;99.90;;;;;;5074339;28;20052;-63
2021/03/05 08:21:55;;;;;;;12.05;7.35;;;21.00;99.90;;;;;;5062862;28;20036;-63
2021/03/05 08:24:24;;;;;;;13.40;8.00;;;20.90;99.90;;;;;;5073633;28;20540;-64
2021/03/05 08:27:20;;;;;;;14.90;7.95;;;21.00;99.90;;;;;;5073616;28;20021;-64
2021/03/05 08:30:09;;;;;;;15.05;7.47;;;21.00;99.90;;;;;;5072142;28;20025;-65
2021/03/05 08:32:37;;;;;;;13.60;6.68;;;20.90;99.90;;;;;;5073598;28;20028;-73
2021/03/05 08:35:09;;;;;;;18.63;8.45;;;20.90;99.90;;;;;;5073437;28;20557;-67
2021/03/05 08:37:59;;;;;;;15.55;6.90;;;21.00;99.90;;;;;;5073557;28;20016;-62
2021/03/05 08:40:33;;;;;;;14.85;7.55;;;21.20;99.90;;;;;;5064410;28;20031;-60
2021/03/05 08:43:13;;;;;;;12.32;7.13;;;20.90;99.90;;;;;;5073405;28;20032;-60
2021/03/05 08:46:07;;;;;;;15.32;8.32;;;20.90;99.90;;;;;;5074018;28;20024;-61
2021/03/05 08:48:45;;;;;;;16.02;8.07;;;20.80;99.90;;;;;;5072997;28;20554;-61
2021/03/05 08:51:17;;;;;;;15.35;7.65;;;20.80;99.90;;;;;;5073274;28;20020;-61
2021/03/05 08:53:55;;;;;;;12.57;7.22;;;20.80;99.90;;;;;;5073256;28;20016;-62
2021/03/05 08:56:27;;;;;;;13.90;7.57;;;20.70;99.90;;;;;;5073204;28;20027;-61
2021/03/05 08:59:05;;;;;;;14.18;8.27;;;20.70;99.90;;;;;;5073545;28;20480;-55
2021/03/05 09:01:40;;;;;;;11.73;7.68;;;20.80;99.90;;;;;;5073317;28;20433;-59
2021/03/05 09:04:18;;;;;;;14.82;7.90;;;20.80;99.90;;;;;;5073331;28;20035;-59
2021/03/05 09:06:58;;;;;;;15.27;7.50;;;20.90;99.90;;;;;;5073180;28;20033;-59
2021/03/05 09:09:28;;;;;;;15.00;8.07;;;20.80;99.90;;;;;;5072918;28;20020;-59
2021/03/05 09:12:16;;;;;;;13.30;7.35;;;20.70;99.90;;;;;;5073305;28;20024;-59
2021/03/05 09:14:45;;;;;;;11.60;7.50;;;20.70;99.90;;;;;;5072321;28;20028;-59
2021/03/05 09:17:13;;;;;;;13.90;7.20;;;20.70;99.90;;;;;;5073218;28;20039;-58
2021/03/05 09:19:42;;;;;;;13.57;7.78;;;20.70;99.90;;;;;;5072969;28;20094;-59
2021/03/05 09:22:21;;;;;;;13.77;7.57;;;20.70;99.90;;;;;;5072933;28;20036;-59
2021/03/05 09:24:59;;;;;;;13.10;7.43;;;20.70;99.90;;;;;;5072940;28;20385;-59
2021/03/05 09:27:40;;;;;;;16.15;6.85;;;20.70;99.90;;;;;;5072878;28;20043;-59
2021/03/05 09:30:25;;;;;;;15.55;7.30;;;20.70;99.90;;;;;;5072799;28;20115;-59
2021/03/05 09:32:57;;;;;;;13.20;7.38;;;20.60;99.90;;;;;;5072826;28;20502;-60
2021/03/05 09:35:32;;;;;;;11.75;6.63;;;20.60;99.90;;;;;;5072863;28;20025;-58
2021/03/05 09:37:59;;;;;;;15.50;6.97;;;20.60;99.90;;;;;;5073123;28;20056;-58
2021/03/05 09:40:30;;;;;;;14.30;6.93;;;20.60;99.90;;;;;;5072568;28;20064;-58
2021/03/05 09:42:59;;;;;;;16.85;7.40;;;20.50;99.90;;;;;;5073299;28;20036;-58
2021/03/05 09:45:37;;;;;;;13.02;7.28;;;20.50;99.90;;;;;;5072943;28;20024;-58
2021/03/05 09:48:06;;;;;;;14.82;8.00;;;20.60;99.90;;;;;;5072982;28;20021;-58
2021/03/05 09:50:34;;;;;;;14.38;7.82;;;20.60;99.90;;;;;;5071258;28;20036;-58
2021/03/05 09:53:25;;;;;;;11.73;7.38;;;20.50;99.90;;;;;;5072825;28;20035;-57
2021/03/05 09:55:55;;;;;;;15.48;8.20;;;20.50;99.90;;;;;;5072723;28;20016;-56
2021/03/05 09:58:22;;;;;;;14.23;8.18;;;20.40;99.90;;;;;;5072639;28;20052;-58
2021/03/05 10:00:52;;;;;;;11.85;7.25;;;20.50;99.90;;;;;;5072919;28;20020;-56
2021/03/05 10:03:23;;;;;;;15.07;7.03;;;20.60;99.90;;;;;;5072784;28;20039;-58
2021/03/05 10:05:51;;;;;;;14.75;7.28;;;20.60;99.90;;;;;;5072876;28;20055;-58
2021/03/05 10:08:32;;;;;;;13.15;7.30;;;20.50;99.90;;;;;;5071197;28;20021;-57
2021/03/05 10:11:09;;;;;;;11.85;7.05;;;20.60;99.90;;;;;;5072419;28;20545;-58
2021/03/05 10:13:43;;;;;;;15.18;7.10;;;20.60;99.90;;;;;;5072456;28;20024;-56
2021/03/05 10:16:18;;;;;;;16.00;7.68;;;20.50;99.90;;;;;;5071131;28;20063;-58
2021/03/05 10:18:47;;;;;;;15.00;6.75;;;20.50;99.90;;;;;;5073032;28;20053;-57
2021/03/05 10:21:20;;;;;;;17.07;7.27;;;20.50;99.90;;;;;;5072720;28;20032;-57
2021/03/05 10:23:48;;;;;;;13.57;6.70;;;20.50;99.90;;;;;;5073046;28;20411;-58
2021/03/05 10:26:28;;;;;;;16.00;7.53;;;20.50;99.90;;;;;;5074378;28;20485;-58
2021/03/05 10:29:01;;;;;;;15.15;6.78;;;20.60;99.90;;;;;;5076140;28;20024;-57
2021/03/05 10:31:50;;;;;;;17.05;7.68;;;20.50;99.90;;;;;;5075963;28;20043;-58
2021/03/05 10:34:23;;;;;;;14.73;6.97;;;20.50;99.90;;;;;;5075844;28;20040;-58
2021/03/05 10:36:57;;;;;;;12.05;7.03;;;20.50;99.90;;;;;;5075822;28;20039;-58
2021/03/05 10:39:26;;;;;;;17.20;7.35;;;20.50;99.90;;;;;;5076348;28;20032;-58
2021/03/05 10:41:57;;;;;;;12.80;6.93;;;20.50;99.90;;;;;;5075576;28;20044;-58
2021/03/05 10:44:26;;;;;;;10.10;6.60;;;20.60;99.90;;;;;;5075502;28;20024;-57
2021/03/05 10:46:55;;;;;;;15.77;6.85;;;20.50;99.90;;;;;;5075438;28;20036;-59
2021/03/05 10:49:23;;;;;;;13.00;7.32;;;20.40;99.90;;;;;;5075333;28;20409;-57
2021/03/05 10:51:50;;;;;;;16.60;7.10;;;20.40;99.90;;;;;;5075484;28;20082;-56
2021/03/05 10:54:17;;;;;;;15.25;6.90;;;20.40;99.90;;;;;;5075627;28;20021;-57
2021/03/05 10:56:45;;;;;;;12.77;6.65;;;20.40;99.90;;;;;;5075469;28;20031;-59
2021/03/05 10:59:15;;;;;;;12.35;6.40;;;20.40;99.90;;;;;;5075370;28;20520;-57
2021/03/05 11:01:43;;;;;;;15.07;7.70;;;20.50;99.90;;;;;;5075324;28;20385;-59
2021/03/05 11:04:10;;;;;;;16.35;7.78;;;20.40;99.90;;;;;;5075214;28;20025;-60
2021/03/05 11:06:38;;;;;;;14.18;6.85;;;20.40;99.90;;;;;;5075183;28;20501;-57
2021/03/05 11:09:06;;;;;;;14.82;7.82;;;20.40;99.90;;;;;;5075112;28;20028;-53
2021/03/05 11:11:34;;;;;;;11.07;7.22;;;20.40;99.90;;;;;;5075098;28;20021;-53
2021/03/05 11:14:01;;;;;;;12.85;7.10;;;20.40;99.90;;;;;;5074958;28;20407;-50
2021/03/05 11:16:29;;;;;;;15.68;7.68;;;20.40;99.90;;;;;;5075100;28;20433;-52
2021/03/05 11:18:56;;;;;;;10.73;7.63;;;20.40;99.90;;;;;;5074910;28;20024;-52
2021/03/05 11:21:24;;;;;;;14.75;7.85;;;20.40;99.90;;;;;;5073657;28;20414;-51
2021/03/05 11:23:53;;;;;;;15.25;8.10;;;20.40;99.90;;;;;;5075186;28;20020;-54
2021/03/05 11:26:21;;;;;;;12.68;7.55;;;20.30;99.90;;;;;;5075159;28;20523;-53
2021/03/05 11:28:49;;;;;;;19.48;8.38;;;20.30;99.90;;;;;;5074686;28;20017;-52
2021/03/05 11:31:17;;;;;;;15.32;7.57;;;20.30;99.90;;;;;;5073516;28;20107;-54
2021/03/05 11:33:45;;;;;;;13.45;7.00;;;20.30;99.90;;;;;;5074784;28;20020;-54
2021/03/05 11:36:17;;;;;;;12.90;7.10;;;20.40;99.90;;;;;;5074641;28;20418;-53
2021/03/05 11:38:46;;;;;;;15.65;8.05;;;20.30;99.90;;;;;;5074022;28;20046;-54
2021/03/05 11:41:14;;;;;;;18.83;7.78;;;20.30;99.90;;;;;;5074335;28;20079;-52
2021/03/05 11:43:49;;;;;;;16.08;8.00;;;20.20;99.90;;;;;;5074466;28;20028;-54
2021/03/05 11:46:26;;;;;;;13.23;7.53;;;20.20;99.90;;;;;;5074458;28;20031;-52
2021/03/05 11:48:53;;;;;;;15.02;7.60;;;20.30;99.90;;;;;;5074334;28;20043;-55
2021/03/05 11:51:20;;;;;;;18.75;7.55;;;20.30;99.90;;;;;;5074386;28;20028;-52
2021/03/05 11:53:50;;;;;;;15.68;8.15;;;20.20;99.90;;;;;;5074197;28;20051;-56
2021/03/05 11:56:18;;;;;;;14.30;7.70;;;20.10;99.90;;;;;;5074277;28;20511;-54
2021/03/05 11:58:45;;;;;;;15.50;7.40;;;19.90;99.90;;;;;;5074212;28;20086;-53
2021/03/05 12:01:13;;;;;;;19.92;8.35;;;19.90;99.90;;;;;;5072836;28;20500;-55
2021/03/05 12:03:41;;;;;;;12.05;7.65;;;19.80;99.90;;;;;;5073946;28;20035;-53
2021/03/05 12:06:09;;;;;;;24.73;8.32;;;19.70;99.90;;;;;;5074039;28;20108;-57
2021/03/05 12:08:36;;;;;;;13.40;8.35;;;19.70;99.90;;;;;;5072603;28;20397;-52
2021/03/05 12:11:03;;;;;;;18.02;7.72;;;19.80;99.90;;;;;;5073977;28;20017;-54
2021/03/05 12:13:31;;;;;;;14.13;7.97;;;19.80;99.90;;;;;;5073948;28;20051;-52
2021/03/05 12:15:59;;;;;;;13.40;8.43;;;19.70;99.90;;;;;;5073890;28;20070;-53
2021/03/05 12:18:26;;;;;;;15.98;7.82;;;19.80;99.90;;;;;;5073829;28;20028;-55
2021/03/05 12:20:53;;;;;;;16.95;8.30;;;19.70;99.90;;;;;;5073750;28;20021;-54
2021/03/05 12:23:21;;;;;;;16.42;8.65;;;19.80;99.90;;;;;;5073681;28;20095;-55
2021/03/05 12:25:48;;;;;;;12.40;7.45;;;19.80;99.90;;;;;;5073642;28;20066;-55
2021/03/05 12:28:15;;;;;;;16.27;7.93;;;19.80;99.90;;;;;;5073578;28;20024;-53
2021/03/05 12:30:43;;;;;;;13.07;8.02;;;19.80;99.90;;;;;;5073586;28;20326;-53
2021/03/05 12:33:10;;;;;;;14.90;8.40;;;19.70;99.90;;;;;;5073611;28;20017;-51
2021/03/05 12:35:37;;;;;;;13.23;8.43;;;19.80;99.90;;;;;;5073469;28;20423;-54
2021/03/05 12:38:05;;;;;;;16.10;8.15;;;19.70;99.90;;;;;;5073422;28;20027;-55
2021/03/05 12:40:32;;;;;;;16.60;8.43;;;19.70;99.90;;;;;;5073224;28;20132;-54
2021/03/05 12:43:00;;;;;;;19.00;8.00;;;19.60;99.90;;;;;;5073936;28;20064;-52
2021/03/05 12:45:28;;;;;;;14.80;7.32;;;19.60;99.90;;;;;;5073384;28;20029;-52
2021/03/05 12:47:55;;;;;;;17.60;9.10;;;19.60;99.90;;;;;;5073335;28;20025;-53
2021/03/05 12:50:22;;;;;;;16.48;9.20;;;19.60;99.90;;;;;;5073145;28;20021;-53
2021/03/05 12:52:50;;;;;;;15.32;9.18;;;19.60;99.90;;;;;;5073322;28;20362;-54
2021/03/05 12:55:17;;;;;;;16.02;8.63;;;19.70;99.90;;;;;;5073302;28;20081;-59
2021/03/05 12:57:45;;;;;;;14.60;9.07;;;19.60;99.90;;;;;;5073276;28;20027;-52
2021/03/05 13:00:13;;;;;;;13.70;9.48;;;19.50;99.90;;;;;;5073131;28;20477;-51
2021/03/05 13:02:40;;;;;;;15.93;8.70;;;19.50;99.90;;;;;;5073105;28;20025;-51
2021/03/05 13:05:08;;;;;;;15.30;8.80;;;19.50;99.90;;;;;;5073212;28;20025;-55
2021/03/05 13:07:35;;;;;;;18.60;9.13;;;19.50;99.90;;;;;;5073147;28;20029;-53